createdAt,value
2023-03-12T00:02:23.639Z,100575.31
2023-03-12T00:04:52.965Z,100579.22
2023-03-12T00:07:24.833Z,100584.09
2023-03-12T00:09:54.090Z,100585.78
2023-03-12T00:12:23.331Z,100592.97
2023-03-12T00:14:52.589Z,100589.47
2023-03-12T00:17:21.866Z,100592.13
2023-03-12T00:19:54.356Z,100591.53
2023-03-12T00:22:26.480Z,100585.72
2023-03-12T00:24:56.750Z,100595.97
2023-03-12T00:27:26.772Z,100591.72
2023-03-12T00:29:56.643Z,100592.69
2023-03-12T00:32:25.917Z,100597.44
2023-03-12T00:34:56.128Z,100597.66
2023-03-12T00:37:28.089Z,100594.78
2023-03-12T00:39:57.370Z,100592.13
2023-03-12T00:42:26.631Z,100601.75
2023-03-12T00:44:55.934Z,100604.53
2023-03-12T00:47:25.207Z,100600.03
2023-03-12T00:49:54.425Z,100593.50
2023-03-12T00:52:23.696Z,100593.06
2023-03-12T00:54:58.282Z,100595.94
2023-03-12T00:57:27.928Z,100594.44
2023-03-12T00:59:57.231Z,100595.88
2023-03-12T01:02:26.507Z,100590.81
2023-03-12T01:04:55.826Z,100599.31
2023-03-12T01:07:25.118Z,100598.34
2023-03-12T01:09:57.034Z,100594.22
2023-03-12T01:12:26.762Z,100597.56
2023-03-12T01:14:56.039Z,100599.56
2023-03-12T01:17:25.285Z,100606.06
2023-03-12T01:19:54.642Z,100609.94
2023-03-12T01:22:23.975Z,100609.69
2023-03-12T01:24:53.226Z,100610.09
2023-03-12T01:27:25.362Z,100609.88
2023-03-12T01:29:54.707Z,100611.63
2023-03-12T01:32:24.204Z,100610.63
2023-03-12T01:34:53.499Z,100606.13
2023-03-12T01:37:22.860Z,100606.59
2023-03-12T01:39:52.535Z,100600.66
2023-03-12T01:42:21.842Z,100611.00
2023-03-12T01:44:59.506Z,100603.59
2023-03-12T01:47:31.867Z,100607.50
2023-03-12T01:50:03.678Z,100610.28
2023-03-12T01:52:35.730Z,100607.28
2023-03-12T01:55:09.388Z,100610.16
2023-03-12T01:57:41.940Z,100611.13
2023-03-12T02:00:20.051Z,100607.28
2023-03-12T02:02:51.469Z,100607.94
2023-03-12T02:05:28.139Z,100607.78
2023-03-12T02:07:58.110Z,100605.22
2023-03-12T02:10:28.175Z,100605.63
2023-03-12T02:12:57.442Z,100609.16
2023-03-12T02:15:29.322Z,100605.41
2023-03-12T02:17:58.574Z,100611.94
2023-03-12T02:20:35.000Z,100620.16
2023-03-12T02:23:12.016Z,100613.19
2023-03-12T02:25:46.577Z,100598.97
2023-03-12T02:28:18.558Z,100613.34
2023-03-12T02:30:51.164Z,100612.31
2023-03-12T02:33:20.366Z,100603.31
2023-03-12T02:35:50.917Z,100607.22
2023-03-12T02:38:41.975Z,100609.09
2023-03-12T02:41:19.343Z,100611.19
2023-03-12T02:43:52.140Z,100613.59
2023-03-12T02:46:21.953Z,100616.41
2023-03-12T02:48:51.451Z,100615.25
2023-03-12T02:51:20.777Z,100615.88
2023-03-12T02:53:54.672Z,100616.25
2023-03-12T02:56:28.954Z,100618.53
2023-03-12T02:58:58.275Z,100620.34
2023-03-12T03:01:27.672Z,100620.59
2023-03-12T03:03:57.071Z,100623.00
2023-03-12T03:06:26.609Z,100617.31
2023-03-12T03:08:55.802Z,100622.16
2023-03-12T03:11:28.218Z,100626.66
2023-03-12T03:13:58.154Z,100622.78
2023-03-12T03:16:27.656Z,100619.31
2023-03-12T03:18:56.958Z,100625.63
2023-03-12T03:21:26.448Z,100625.41
2023-03-12T03:23:55.663Z,100627.00
2023-03-12T03:26:27.741Z,100634.41
2023-03-12T03:28:57.086Z,100626.00
2023-03-12T03:31:26.435Z,100624.94
2023-03-12T03:33:55.753Z,100624.94
2023-03-12T03:36:25.028Z,100626.38
2023-03-12T03:38:54.258Z,100626.78
2023-03-12T03:41:26.946Z,100616.91
2023-03-12T03:43:58.991Z,100629.81
2023-03-12T03:46:28.315Z,100636.19
2023-03-12T03:48:57.530Z,100631.13
2023-03-12T03:51:26.734Z,100639.44
2023-03-12T03:53:56.117Z,100643.09
2023-03-12T03:56:27.918Z,100644.34
2023-03-12T03:58:57.234Z,100649.47
2023-03-12T04:01:26.451Z,100640.66
2023-03-12T04:03:55.680Z,100638.78
2023-03-12T04:06:25.160Z,100650.25
2023-03-12T04:08:54.718Z,100636.38
2023-03-12T04:11:24.735Z,100639.16
2023-03-12T04:13:56.555Z,100636.53
2023-03-12T04:16:26.157Z,100639.81
2023-03-12T04:18:55.658Z,100641.78
2023-03-12T04:21:24.887Z,100631.63
2023-03-12T04:23:54.150Z,100640.78
2023-03-12T04:26:23.402Z,100641.34
2023-03-12T04:28:52.609Z,100642.47
2023-03-12T04:31:24.495Z,100647.97
2023-03-12T04:33:53.727Z,100640.19
2023-03-12T04:36:23.131Z,100638.50
2023-03-12T04:38:55.331Z,100636.88
2023-03-12T04:41:24.568Z,100633.63
2023-03-12T04:43:53.806Z,100636.47
2023-03-12T04:46:25.729Z,100625.13
2023-03-12T04:48:54.983Z,100620.97
2023-03-12T04:51:24.514Z,100625.44
2023-03-12T04:53:53.837Z,100617.28
2023-03-12T04:56:23.080Z,100621.53
2023-03-12T04:58:52.438Z,100619.28
2023-03-12T05:01:30.798Z,100621.94
2023-03-12T05:04:00.546Z,100621.38
2023-03-12T05:06:29.796Z,100618.09
2023-03-12T05:08:59.192Z,100622.53
2023-03-12T05:11:28.838Z,100626.97
2023-03-12T05:13:58.090Z,100617.69
2023-03-12T05:16:30.137Z,100616.75
2023-03-12T05:18:59.393Z,100612.97
2023-03-12T05:21:28.607Z,100618.84
2023-03-12T05:23:57.893Z,100618.59
2023-03-12T05:26:31.454Z,100619.53
2023-03-12T05:29:00.977Z,100618.50
2023-03-12T05:31:35.529Z,100622.16
2023-03-12T05:34:05.983Z,100630.91
2023-03-12T05:36:35.205Z,100631.72
2023-03-12T05:39:04.425Z,100626.34
2023-03-12T05:41:33.794Z,100622.09
2023-03-12T05:44:03.065Z,100630.66
2023-03-12T05:46:34.881Z,100629.25
2023-03-12T05:49:04.189Z,100626.34
2023-03-12T05:51:33.386Z,100628.38
2023-03-12T05:54:02.731Z,100621.94
2023-03-12T05:56:32.276Z,100621.94
2023-03-12T05:59:03.701Z,100622.97
2023-03-12T06:01:36.182Z,100620.75
2023-03-12T06:04:05.567Z,100616.63
2023-03-12T06:06:35.913Z,100618.78
2023-03-12T06:09:05.840Z,100616.13
2023-03-12T06:11:36.339Z,100613.03
2023-03-12T06:14:05.814Z,100610.75
2023-03-12T06:16:37.723Z,100610.06
2023-03-12T06:19:07.698Z,100607.78
2023-03-12T06:21:38.794Z,100608.38
2023-03-12T06:24:09.069Z,100603.13
2023-03-12T06:26:38.300Z,100605.38
2023-03-12T06:29:07.497Z,100604.44
2023-03-12T06:31:39.730Z,100603.91
2023-03-12T06:34:10.176Z,100613.47
2023-03-12T06:36:39.867Z,100603.91
2023-03-12T06:39:09.824Z,100600.59
2023-03-12T06:41:39.168Z,100597.44
2023-03-12T06:44:08.544Z,100606.72
2023-03-12T06:46:42.720Z,100606.91
2023-03-12T06:49:12.273Z,100598.78
2023-03-12T06:51:41.603Z,100592.31
2023-03-12T06:54:10.920Z,100594.19
2023-03-12T06:56:44.654Z,100597.28
2023-03-12T06:59:13.970Z,100600.09
2023-03-12T07:01:45.818Z,100602.63
2023-03-12T07:04:15.086Z,100602.47
2023-03-12T07:06:44.411Z,100595.56
2023-03-12T07:09:13.653Z,100591.44
2023-03-12T07:11:42.925Z,100592.38
2023-03-12T07:14:12.198Z,100594.38
2023-03-12T07:16:41.512Z,100596.38
2023-03-12T07:19:13.284Z,100593.16
2023-03-12T07:21:42.538Z,100595.81
2023-03-12T07:24:11.749Z,100594.34
2023-03-12T07:26:41.024Z,100591.53
2023-03-12T07:29:10.241Z,100588.00
2023-03-12T07:31:39.550Z,100592.41
2023-03-12T07:34:09.100Z,100586.47
2023-03-12T07:36:41.033Z,100593.84
2023-03-12T07:39:10.976Z,100597.06
2023-03-12T07:41:40.375Z,100593.03
2023-03-12T07:44:09.706Z,100582.19
2023-03-12T07:46:39.076Z,100588.94
2023-03-12T07:49:08.338Z,100591.75
2023-03-12T07:51:37.537Z,100588.25
2023-03-12T07:54:10.043Z,100593.31
2023-03-12T07:56:39.496Z,100590.94
2023-03-12T07:59:08.956Z,100589.38
2023-03-12T08:01:38.390Z,100593.94
2023-03-12T08:04:07.892Z,100590.75
2023-03-12T08:06:38.773Z,100588.47
2023-03-12T08:09:13.547Z,100584.88
2023-03-12T08:11:42.904Z,100579.59
2023-03-12T08:14:12.281Z,100576.44
2023-03-12T08:16:41.611Z,100584.53
2023-03-12T08:19:11.285Z,100580.84
2023-03-12T08:21:40.566Z,100581.38
2023-03-12T08:24:12.552Z,100583.31
2023-03-12T08:26:41.814Z,100578.47
2023-03-12T08:29:11.121Z,100580.94
2023-03-12T08:31:50.406Z,100584.53
2023-03-12T08:34:26.997Z,100586.88
2023-03-12T08:36:56.431Z,100584.59
2023-03-12T08:39:28.345Z,100588.69
2023-03-12T08:41:58.677Z,100583.22
2023-03-12T08:44:28.662Z,100586.81
2023-03-12T08:46:57.926Z,100590.19
2023-03-12T08:49:27.380Z,100579.91
2023-03-12T08:51:56.997Z,100570.50
2023-03-12T08:54:28.813Z,100573.88
2023-03-12T08:56:58.033Z,100576.63
2023-03-12T08:59:27.249Z,100571.41
2023-03-12T09:01:56.532Z,100574.00
2023-03-12T09:04:25.951Z,100577.13
2023-03-12T09:06:55.295Z,100567.78
2023-03-12T09:09:24.508Z,100576.28
2023-03-12T09:11:56.373Z,100572.78
2023-03-12T09:15:01.517Z,100572.41
2023-03-12T09:17:14.913Z,100565.50
2023-03-12T09:19:44.146Z,100562.69
2023-03-12T09:22:13.666Z,100553.09
2023-03-12T09:24:42.883Z,100545.56
2023-03-12T09:27:14.755Z,100546.00
2023-03-12T09:29:58.835Z,100543.84
2023-03-12T09:32:29.951Z,100551.22
2023-03-12T09:34:59.296Z,100538.41
2023-03-12T09:37:28.838Z,100537.34
2023-03-12T09:39:58.072Z,100534.50
2023-03-12T09:42:37.725Z,100528.81
2023-03-12T09:45:11.348Z,100534.25
2023-03-12T09:47:48.938Z,100515.09
2023-03-12T09:50:25.943Z,100514.34
2023-03-12T09:53:00.770Z,100508.16
2023-03-12T09:55:35.525Z,100502.72
2023-03-12T09:58:07.355Z,100499.94
2023-03-12T10:00:38.295Z,100481.78
2023-03-12T10:03:23.121Z,100459.38
2023-03-12T10:06:07.363Z,100467.19
2023-03-12T10:08:46.612Z,100465.00
2023-03-12T10:11:32.212Z,100459.75
2023-03-12T10:14:24.107Z,100457.75
2023-03-12T10:17:05.563Z,100460.38
2023-03-12T10:19:55.626Z,100456.34
2023-03-12T10:22:40.523Z,100441.09
2023-03-12T10:25:19.288Z,100427.03
2023-03-12T10:27:49.827Z,100410.69
2023-03-12T10:30:24.840Z,100405.00
2023-03-12T10:32:58.821Z,100392.75
2023-03-12T10:35:30.341Z,100392.53
2023-03-12T10:38:01.748Z,100398.03
2023-03-12T10:40:34.190Z,100399.06
2023-03-12T10:43:04.689Z,100384.34
2023-03-12T10:45:42.423Z,100372.53
2023-03-12T10:48:14.054Z,100357.84
2023-03-12T10:50:43.772Z,100349.88
2023-03-12T10:53:23.707Z,100352.09
2023-03-12T10:56:08.703Z,100339.03
2023-03-12T10:58:40.229Z,100339.06
2023-03-12T11:01:22.024Z,100349.25
2023-03-12T11:03:52.110Z,100343.13
2023-03-12T11:06:27.655Z,100347.88
2023-03-12T11:09:17.491Z,100339.06
2023-03-12T11:11:48.526Z,100335.19
2023-03-12T11:14:20.668Z,100339.72
2023-03-12T11:16:53.705Z,100334.78
2023-03-12T11:19:31.699Z,100334.19
2023-03-12T11:22:03.385Z,100329.06
2023-03-12T11:24:33.096Z,100320.50
2023-03-12T11:27:07.837Z,100322.13
2023-03-12T11:29:40.898Z,100319.91
2023-03-12T11:32:20.731Z,100317.06
2023-03-12T11:34:51.281Z,100320.34
2023-03-12T11:37:33.072Z,100316.00
2023-03-12T11:40:19.836Z,100306.22
2023-03-12T11:43:04.138Z,100306.03
2023-03-12T11:45:44.676Z,100322.97
2023-03-12T11:48:27.515Z,100325.63
2023-03-12T11:51:10.243Z,100319.31
2023-03-12T11:53:54.698Z,100320.75
2023-03-12T11:56:30.241Z,100327.69
2023-03-12T11:59:21.338Z,100310.53
2023-03-12T12:02:06.797Z,100302.16
2023-03-12T12:05:20.923Z,100285.22
2023-03-12T12:08:04.221Z,100278.69
2023-03-12T12:10:44.690Z,100270.72
2023-03-12T12:13:22.357Z,100271.50
2023-03-12T12:16:01.612Z,100256.81
2023-03-12T12:18:49.979Z,100258.22
2023-03-12T12:21:38.247Z,100261.72
2023-03-12T12:24:19.972Z,100256.41
2023-03-12T12:26:57.775Z,100254.34
2023-03-12T12:29:38.403Z,100254.97
2023-03-12T12:32:12.566Z,100247.84
2023-03-12T12:35:08.068Z,100252.91
2023-03-12T12:37:50.173Z,100241.31
2023-03-12T12:40:25.875Z,100237.81
2023-03-12T12:43:14.150Z,100236.19
2023-03-12T12:45:44.808Z,100236.41
2023-03-12T12:48:19.434Z,100243.53
2023-03-12T12:50:50.596Z,100245.19
2023-03-12T12:53:28.286Z,100246.59
2023-03-12T12:56:10.770Z,100240.03
2023-03-12T12:59:01.766Z,100238.22
2023-03-12T13:01:32.208Z,100245.78
2023-03-12T13:04:09.118Z,100244.94
2023-03-12T13:06:57.237Z,100249.88
2023-03-12T13:09:40.613Z,100247.41
2023-03-12T13:12:18.517Z,100247.00
2023-03-12T13:14:49.083Z,100239.25
2023-03-12T13:17:31.237Z,100228.22
2023-03-12T13:20:05.763Z,100226.16
2023-03-12T13:23:06.558Z,100224.75
2023-03-12T13:25:58.857Z,100228.44
2023-03-12T13:28:38.044Z,100229.47
2023-03-12T13:31:38.868Z,100229.69
2023-03-12T13:34:35.114Z,100212.31
2023-03-12T13:37:05.693Z,100203.94
2023-03-12T13:39:37.639Z,100215.34
2023-03-12T13:42:41.891Z,100207.00
2023-03-12T13:45:25.938Z,100208.66
2023-03-12T13:48:01.020Z,100207.63
2023-03-12T13:50:31.424Z,100214.16
2023-03-12T13:53:08.533Z,100209.03
2023-03-12T13:55:39.358Z,100193.53
2023-03-12T13:58:21.470Z,100189.69
2023-03-12T14:00:56.659Z,100186.59
2023-03-12T14:03:31.443Z,100209.06
2023-03-12T14:06:09.486Z,100215.78
2023-03-12T14:08:58.103Z,100198.88
2023-03-12T14:11:46.960Z,100183.16
2023-03-12T14:14:41.569Z,100198.03
2023-03-12T14:17:19.236Z,100190.47
2023-03-12T14:19:51.722Z,100191.31
2023-03-12T14:22:23.900Z,100183.75
2023-03-12T14:24:56.627Z,100178.22
2023-03-12T14:27:29.797Z,100177.84
2023-03-12T14:30:13.059Z,100177.22
2023-03-12T14:32:43.539Z,100183.75
2023-03-12T14:35:22.802Z,100187.41
2023-03-12T14:37:59.634Z,100174.59
2023-03-12T14:40:39.123Z,100173.56
2023-03-12T14:43:23.204Z,100166.63
2023-03-12T14:45:57.540Z,100164.75
2023-03-12T14:48:31.385Z,100154.16
2023-03-12T14:51:03.206Z,100153.97
2023-03-12T14:53:34.699Z,100153.56
2023-03-12T14:56:10.574Z,100153.16
2023-03-12T14:58:46.158Z,100147.22
2023-03-12T15:01:22.840Z,100137.44
2023-03-12T15:03:55.485Z,100144.56
2023-03-12T15:06:31.821Z,100130.72
2023-03-12T15:09:04.492Z,100135.38
2023-03-12T15:11:35.645Z,100138.03
2023-03-12T15:14:07.216Z,100126.19
2023-03-12T15:16:39.416Z,100120.91
2023-03-12T15:19:09.224Z,100114.16
2023-03-12T15:21:38.907Z,100119.28
2023-03-12T15:24:09.447Z,100117.25
2023-03-12T15:26:38.698Z,100109.69
2023-03-12T15:29:26.326Z,100100.31
2023-03-12T15:32:00.646Z,100087.66
2023-03-12T15:34:33.550Z,100087.84
2023-03-12T15:37:04.726Z,100087.25
2023-03-12T15:39:36.217Z,100090.50
2023-03-12T15:42:11.691Z,100088.28
2023-03-12T15:44:47.940Z,100093.13
2023-03-12T15:47:23.133Z,100085.59
2023-03-12T15:49:54.336Z,100095.19
2023-03-12T15:52:30.691Z,100096.00
2023-03-12T15:55:10.111Z,100081.34
2023-03-12T15:57:49.044Z,100074.19
2023-03-12T16:00:23.700Z,100076.44
2023-03-12T16:02:58.025Z,100063.59
2023-03-12T16:05:30.315Z,100068.09
2023-03-12T16:08:00.410Z,100070.13
2023-03-12T16:10:31.231Z,100067.84
2023-03-12T16:13:05.142Z,100056.00
2023-03-12T16:15:36.282Z,100064.16
2023-03-12T16:18:08.564Z,100058.66
2023-03-12T16:20:37.833Z,100058.06
2023-03-12T16:23:07.183Z,100063.34
2023-03-12T16:25:37.258Z,100065.59
2023-03-12T16:28:09.116Z,100059.06
2023-03-12T16:30:39.462Z,100054.97
2023-03-12T16:33:15.688Z,100050.28
2023-03-12T16:35:45.080Z,100059.63
2023-03-12T16:38:14.449Z,100054.94
2023-03-12T16:40:47.107Z,100055.78
2023-03-12T16:43:19.644Z,100056.38
2023-03-12T16:45:50.168Z,100049.47
2023-03-12T16:48:25.118Z,100052.50
2023-03-12T16:50:56.751Z,100048.63
2023-03-12T16:53:26.726Z,100047.81
2023-03-12T16:55:58.261Z,100048.22
2023-03-12T16:58:29.523Z,100050.22
2023-03-12T17:01:00.301Z,100041.72
2023-03-12T17:03:36.825Z,100057.00
2023-03-12T17:06:09.701Z,100053.31
2023-03-12T17:08:38.922Z,100044.53
2023-03-12T17:11:17.210Z,100038.19
2023-03-12T17:13:48.667Z,100032.09
2023-03-12T17:16:17.948Z,100029.19
2023-03-12T17:18:49.993Z,100037.81
2023-03-12T17:21:20.818Z,100025.75
2023-03-12T17:23:52.199Z,100027.16
2023-03-12T17:26:22.223Z,100039.81
2023-03-12T17:28:51.477Z,100028.13
2023-03-12T17:31:21.339Z,100036.34
2023-03-12T17:33:53.518Z,100038.13
2023-03-12T17:36:22.928Z,100048.31
2023-03-12T17:38:53.060Z,100050.78
2023-03-12T17:41:27.173Z,100054.75
2023-03-12T17:43:59.817Z,100035.44
2023-03-12T17:46:29.181Z,100030.72
2023-03-12T17:49:01.129Z,100028.06
2023-03-12T17:51:30.504Z,100025.81
2023-03-12T17:53:59.868Z,100023.69
2023-03-12T17:56:29.176Z,100030.06
2023-03-12T17:58:58.438Z,100026.88
2023-03-12T18:01:27.685Z,100024.94
2023-03-12T18:03:56.933Z,100023.44
2023-03-12T18:06:28.840Z,100015.25
2023-03-12T18:08:58.220Z,100026.59
2023-03-12T18:11:27.524Z,100029.41
2023-03-12T18:13:56.787Z,100027.22
2023-03-12T18:16:26.153Z,100018.59
2023-03-12T18:18:55.448Z,100021.66
2023-03-12T18:21:25.056Z,100035.66
2023-03-12T18:23:59.475Z,100031.38
2023-03-12T18:26:31.388Z,100038.31
2023-03-12T18:29:01.369Z,100044.59
2023-03-12T18:31:31.601Z,100039.25
2023-03-12T18:34:01.211Z,100047.81
2023-03-12T18:36:31.525Z,100052.22
2023-03-12T18:39:07.622Z,100052.69
2023-03-12T18:41:36.948Z,100059.34
2023-03-12T18:44:06.641Z,100055.44
2023-03-12T18:46:36.343Z,100049.91
2023-03-12T18:49:12.331Z,100056.78
2023-03-12T18:51:41.738Z,100052.78
2023-03-12T18:54:14.697Z,100062.72
2023-03-12T18:56:44.081Z,100079.63
2023-03-12T18:59:14.668Z,100071.03
2023-03-12T19:01:44.753Z,100081.66
2023-03-12T19:04:18.474Z,100086.78
2023-03-12T19:06:51.775Z,100084.03
2023-03-12T19:09:24.201Z,100091.38
2023-03-12T19:11:53.525Z,100096.31
2023-03-12T19:14:23.187Z,100098.69
2023-03-12T19:16:52.463Z,100092.94
2023-03-12T19:19:21.851Z,100091.53
2023-03-12T19:21:51.124Z,100084.69
2023-03-12T19:24:20.406Z,100091.63
2023-03-12T19:26:52.459Z,100091.78
2023-03-12T19:29:21.740Z,100097.69
2023-03-12T19:31:51.010Z,100090.75
2023-03-12T19:34:21.936Z,100099.72
2023-03-12T19:36:51.197Z,100097.22
2023-03-12T19:39:21.689Z,100096.44
2023-03-12T19:41:53.666Z,100099.19
2023-03-12T19:44:22.926Z,100109.47
2023-03-12T19:46:52.174Z,100104.53
2023-03-12T19:49:21.421Z,100104.16
2023-03-12T19:51:50.665Z,100098.78
2023-03-12T19:54:19.891Z,100091.97
2023-03-12T19:56:49.155Z,100088.66
2023-03-12T19:59:21.058Z,100098.66
2023-03-12T20:01:50.403Z,100103.38
2023-03-12T20:04:19.763Z,100097.63
2023-03-12T20:06:49.095Z,100098.28
2023-03-12T20:09:18.729Z,100093.03
2023-03-12T20:11:48.034Z,100097.69
2023-03-12T20:14:17.296Z,100099.34
2023-03-12T20:16:49.312Z,100087.28
2023-03-12T20:19:18.712Z,100091.72
2023-03-12T20:21:48.282Z,100093.91
2023-03-12T20:24:17.678Z,100086.38
2023-03-12T20:26:46.953Z,100076.31
2023-03-12T20:29:16.276Z,100067.72
2023-03-12T20:31:46.072Z,100071.19
2023-03-12T20:34:17.931Z,100070.75
2023-03-12T20:36:47.177Z,100078.06
2023-03-12T20:39:16.476Z,100079.31
2023-03-12T20:41:45.726Z,100080.16
2023-03-12T20:44:14.989Z,100077.63
2023-03-12T20:46:44.200Z,100092.94
2023-03-12T20:49:13.418Z,100089.47
2023-03-12T20:51:46.000Z,100095.59
2023-03-12T20:54:15.454Z,100094.66
2023-03-12T20:56:44.876Z,100092.06
2023-03-12T20:59:14.446Z,100085.91
2023-03-12T21:01:43.802Z,100084.56
2023-03-12T21:04:13.240Z,100081.00
2023-03-12T21:06:45.417Z,100077.78
2023-03-12T21:09:15.142Z,100069.91
2023-03-12T21:11:44.787Z,100072.38
2023-03-12T21:14:14.389Z,100077.00
2023-03-12T21:16:43.877Z,100073.91
2023-03-12T21:19:13.323Z,100071.81
2023-03-12T21:21:45.199Z,100070.81
2023-03-12T21:24:14.497Z,100074.25
2023-03-12T21:26:43.954Z,100074.88
2023-03-12T21:29:14.828Z,100072.06
2023-03-12T21:31:44.150Z,100072.41
2023-03-12T21:34:13.442Z,100076.94
2023-03-12T21:36:46.322Z,100075.22
2023-03-12T21:39:17.036Z,100071.72
2023-03-12T21:41:46.252Z,100066.75
2023-03-12T21:44:16.700Z,100062.72
2023-03-12T21:46:46.086Z,100060.28
2023-03-12T21:49:18.034Z,100069.25
2023-03-12T21:51:50.010Z,100053.34
2023-03-12T21:54:19.296Z,100053.47
2023-03-12T21:56:48.507Z,100055.66
2023-03-12T21:59:17.787Z,100048.84
2023-03-12T22:01:47.052Z,100041.63
2023-03-12T22:04:16.492Z,100039.09
2023-03-12T22:06:46.602Z,100040.13
2023-03-12T22:09:18.486Z,100034.00
2023-03-12T22:11:48.013Z,100032.00
2023-03-12T22:14:17.491Z,100034.94
2023-03-12T22:16:46.800Z,100028.81
2023-03-12T22:19:16.301Z,100018.59
2023-03-12T22:21:45.541Z,100026.72
2023-03-12T22:24:14.867Z,100018.25
2023-03-12T22:26:46.805Z,100015.94
2023-03-12T22:29:16.265Z,100011.75
2023-03-12T22:31:45.595Z,100016.88
2023-03-12T22:34:14.914Z,100012.13
2023-03-12T22:36:44.725Z,100013.38
2023-03-12T22:39:14.052Z,100013.16
2023-03-12T22:41:46.039Z,99995.44
2023-03-12T22:44:15.272Z,99988.56
2023-03-12T22:46:44.696Z,99987.91
2023-03-12T22:49:14.242Z,99993.56
2023-03-12T22:51:43.473Z,99989.50
2023-03-12T22:54:12.766Z,99987.31
2023-03-12T22:56:42.164Z,99987.16
2023-03-12T22:59:13.974Z,99982.00
2023-03-12T23:01:43.334Z,99975.59
2023-03-12T23:04:12.664Z,99968.66
2023-03-12T23:06:42.574Z,99968.75
2023-03-12T23:09:11.848Z,99972.13
2023-03-12T23:11:41.529Z,99963.44
2023-03-12T23:14:13.611Z,99967.34
2023-03-12T23:16:42.992Z,99964.34
2023-03-12T23:19:12.242Z,99963.78
2023-03-12T23:21:42.148Z,99951.72
2023-03-12T23:24:11.629Z,99954.94
2023-03-12T23:26:41.945Z,99946.72
2023-03-12T23:29:15.739Z,99940.22
2023-03-12T23:31:44.999Z,99931.31
2023-03-12T23:34:14.286Z,99931.44
2023-03-12T23:36:44.497Z,99933.28
2023-03-12T23:39:14.401Z,99926.22
2023-03-12T23:41:43.830Z,99921.09
2023-03-12T23:44:15.710Z,99917.16
2023-03-12T23:46:45.935Z,99920.41
2023-03-12T23:49:15.332Z,99919.59
2023-03-12T23:51:44.569Z,99919.50
2023-03-12T23:54:13.820Z,99919.38
2023-03-12T23:56:43.412Z,99917.50
2023-03-12T23:59:15.263Z,99912.38
